Time;durP1;ratioP1;P1;durP2;ratioP2;P2;SDS_P1;SDS_P2;PMS_P1;PMS_P2;Temp;Humidity;BMP_temperature;BMP_pressure;BME280_temperature;BME280_humidity;BME280_pressure;Samples;Min_cycle;Max_cycle;Signal;HPM_P1;HPM_P2
2023/06/03 00:02:06;;;;;;;;;;;;;;;20.35;69.24;96606.20;617619;230;65043;-62
2023/06/03 00:04:33;;;;;;;;;;;;;;;20.34;69.22;96601.95;617637;230;65520;-62
2023/06/03 00:07:01;;;;;;;;;;;;;;;20.35;69.21;96600.88;617631;230;65171;-62
2023/06/03 00:09:28;;;;;;;;;;;;;;;20.34;69.24;96613.42;617657;230;63005;-62
2023/06/03 00:11:55;;;;;;;;;;;;;;;20.34;69.26;96610.75;617666;230;63304;-62
2023/06/03 00:14:23;;;;;;;;;;;;;;;20.34;69.22;96608.08;617626;229;63167;-62
2023/06/03 00:16:50;;;;;;;;;;;;;;;20.34;69.25;96608.08;617664;230;62909;-62
2023/06/03 00:19:18;;;;;;;;;;;;;;;20.33;69.23;96603.83;617684;230;62913;-62
2023/06/03 00:21:49;;;;;;;;;;;;;;;20.34;69.27;96601.95;617660;230;64912;-62
2023/06/03 00:24:16;;;;;;;;;;;;;;;20.34;69.27;96601.95;617722;230;65104;-62
2023/06/03 00:26:43;;;;;;;;;;;;;;;20.34;69.28;96607.30;617609;230;65117;-61
2023/06/03 00:29:11;;;;;;;;;;;;;;;20.34;69.27;96608.08;617700;230;64843;-61
2023/06/03 00:31:38;;;;;;;;;;;;;;;20.34;69.27;96609.96;617525;230;65806;-61
2023/06/03 00:34:06;;;;;;;;;;;;;;;20.34;69.26;96612.62;617331;230;65066;-61
2023/06/03 00:36:33;;;;;;;;;;;;;;;20.34;69.26;96604.63;617723;230;64855;-61
2023/06/03 00:39:01;;;;;;;;;;;;;;;20.33;69.25;96606.50;617658;230;65646;-61
2023/06/03 00:41:28;;;;;;;;;;;;;;;20.34;69.26;96613.42;617657;230;66136;-61
2023/06/03 00:43:56;;;;;;;;;;;;;;;20.33;69.28;96609.17;617679;230;64865;-61
2023/06/03 00:46:24;;;;;;;;;;;;;;;20.33;69.28;96611.84;617656;230;65085;-61
2023/06/03 00:48:51;;;;;;;;;;;;;;;20.33;69.26;96603.04;617681;230;62782;-61
2023/06/03 00:51:19;;;;;;;;;;;;;;;20.33;69.27;96608.38;617665;230;64166;-61
2023/06/03 00:53:47;;;;;;;;;;;;;;;20.33;69.27;96603.83;617665;230;62969;-61
2023/06/03 00:56:16;;;;;;;;;;;;;;;20.33;69.29;96606.50;617682;230;65251;-61
2023/06/03 00:58:44;;;;;;;;;;;;;;;20.33;69.29;96603.83;617686;230;65195;-62
2023/06/03 01:01:13;;;;;;;;;;;;;;;20.32;69.27;96607.55;617681;230;65318;-61
2023/06/03 01:03:47;;;;;;;;;;;;;;;20.33;69.27;96603.83;617733;230;65250;-62
2023/06/03 01:06:14;;;;;;;;;;;;;;;20.33;69.27;96605.70;617467;228;65230;-61
2023/06/03 01:08:44;;;;;;;;;;;;;;;20.33;69.29;96597.70;617324;228;66729;-62
2023/06/03 01:11:15;;;;;;;;;;;;;;;20.34;69.27;96601.95;617684;230;65290;-62
2023/06/03 01:13:45;;;;;;;;;;;;;;;20.33;69.29;96595.03;619037;228;65159;-62
2023/06/03 01:16:15;;;;;;;;;;;;;;;20.33;69.28;96595.03;619816;229;65775;-62
2023/06/03 01:18:44;;;;;;;;;;;;;;;20.33;69.29;96589.70;619815;229;63548;-62
2023/06/03 01:21:12;;;;;;;;;;;;;;;20.32;69.29;96586.20;619783;229;65056;-64
2023/06/03 01:23:42;;;;;;;;;;;;;;;20.32;69.28;96593.42;619801;229;62963;-64
2023/06/03 01:26:11;;;;;;;;;;;;;;;20.32;69.29;96588.08;619677;227;65629;-64
2023/06/03 01:28:39;;;;;;;;;;;;;;;20.33;69.29;96584.36;619826;229;63145;-64
2023/06/03 01:31:07;;;;;;;;;;;;;;;20.33;69.28;96581.69;619706;229;65211;-64
2023/06/03 01:33:36;;;;;;;;;;;;;;;20.32;69.29;96578.20;619684;229;64627;-64
2023/06/03 01:36:04;;;;;;;;;;;;;;;20.32;69.29;96582.74;619625;229;64807;-64
2023/06/03 01:38:32;;;;;;;;;;;;;;;20.32;69.30;96588.08;619656;229;63812;-64
2023/06/03 01:41:01;;;;;;;;;;;;;;;20.32;69.28;96585.41;619612;229;67306;-64
2023/06/03 01:43:30;;;;;;;;;;;;;;;20.32;69.29;96594.21;619684;229;67706;-64
2023/06/03 01:45:58;;;;;;;;;;;;;;;20.32;69.27;96593.42;619649;229;62615;-64
2023/06/03 01:48:25;;;;;;;;;;;;;;;20.32;69.28;96596.09;619628;229;67193;-64
2023/06/03 01:50:54;;;;;;;;;;;;;;;20.32;69.28;96594.21;619669;229;64491;-64
2023/06/03 01:53:21;;;;;;;;;;;;;;;20.33;69.26;96595.03;619605;229;65784;-64
2023/06/03 01:55:49;;;;;;;;;;;;;;;20.32;69.30;96599.55;619693;229;67361;-64
2023/06/03 01:58:17;;;;;;;;;;;;;;;20.32;69.28;96598.76;619663;229;67153;-64
2023/06/03 02:00:45;;;;;;;;;;;;;;;20.32;69.29;96599.55;619629;229;65002;-64
2023/06/03 02:03:12;;;;;;;;;;;;;;;20.32;69.27;96599.55;619656;229;66956;-64
2023/06/03 02:05:40;;;;;;;;;;;;;;;20.32;69.28;96596.09;619618;229;68073;-64
2023/06/03 02:08:08;;;;;;;;;;;;;;;20.32;69.27;96593.42;619698;229;65718;-64
2023/06/03 02:10:36;;;;;;;;;;;;;;;20.32;69.27;96602.22;619667;229;64565;-64
2023/06/03 02:13:05;;;;;;;;;;;;;;;20.32;69.27;96596.09;619556;229;67386;-63
2023/06/03 02:15:32;;;;;;;;;;;;;;;20.31;69.26;96600.63;619634;229;65288;-64
2023/06/03 02:17:59;;;;;;;;;;;;;;;20.31;69.28;96605.97;619664;229;67224;-63
2023/06/03 02:20:27;;;;;;;;;;;;;;;20.31;69.28;96611.31;619685;229;67120;-63
2023/06/03 02:22:57;;;;;;;;;;;;;;;20.31;69.25;96605.97;619660;229;65824;-64
2023/06/03 02:25:24;;;;;;;;;;;;;;;20.31;69.26;96603.30;619607;229;66762;-63
2023/06/03 02:27:54;;;;;;;;;;;;;;;20.31;69.25;96597.17;619668;229;66928;-63
2023/06/03 02:30:21;;;;;;;;;;;;;;;20.30;69.26;96600.92;619602;227;64947;-64
2023/06/03 02:32:49;;;;;;;;;;;;;;;20.32;69.28;96604.09;619140;229;67451;-63
2023/06/03 02:35:17;;;;;;;;;;;;;;;20.32;69.28;96609.43;619694;229;64915;-63
2023/06/03 02:37:44;;;;;;;;;;;;;;;20.31;69.28;96611.31;619641;229;62520;-64
2023/06/03 02:40:12;;;;;;;;;;;;;;;20.31;69.26;96613.19;619653;229;67405;-64
2023/06/03 02:42:39;;;;;;;;;;;;;;;20.32;69.24;96612.89;619664;229;67060;-63
2023/06/03 02:45:09;;;;;;;;;;;;;;;20.32;69.27;96617.44;619636;229;65755;-64
2023/06/03 02:47:36;;;;;;;;;;;;;;;20.31;69.29;96623.86;619695;229;67252;-64
2023/06/03 02:50:04;;;;;;;;;;;;;;;20.32;69.27;96628.91;619659;229;66867;-64
2023/06/03 02:52:33;;;;;;;;;;;;;;;20.31;69.28;96629.20;619646;229;65043;-64
2023/06/03 02:55:02;;;;;;;;;;;;;;;20.31;69.29;96629.20;619636;229;67345;-64
2023/06/03 02:57:29;;;;;;;;;;;;;;;20.31;69.26;96640.66;619628;229;67050;-64
2023/06/03 02:59:57;;;;;;;;;;;;;;;20.31;69.29;96639.87;619667;229;64881;-63
2023/06/03 03:02:25;;;;;;;;;;;;;;;20.30;69.27;96646.30;619627;229;67876;-64
2023/06/03 03:04:53;;;;;;;;;;;;;;;20.31;69.28;96646.00;619661;229;65474;-64
2023/06/03 03:07:27;;;;;;;;;;;;;;;20.32;69.29;96654.80;619620;229;65759;-64
2023/06/03 03:09:50;;;;;;;;;;;;;;;20.31;69.25;96656.67;619537;228;67122;-64
2023/06/03 03:12:18;;;;;;;;;;;;;;;20.31;69.29;96656.67;619397;229;66675;-64
2023/06/03 03:14:45;;;;;;;;;;;;;;;20.30;69.29;96659.63;617514;230;64889;-65
2023/06/03 03:17:13;;;;;;;;;;;;;;;20.30;69.28;96665.77;617483;230;67832;-64
2023/06/03 03:19:40;;;;;;;;;;;;;;;20.31;69.30;96662.02;617511;230;65255;-64
2023/06/03 03:22:08;;;;;;;;;;;;;;;20.31;69.30;96666.55;617512;230;63490;-64
2023/06/03 03:24:36;;;;;;;;;;;;;;;20.31;69.28;96663.89;617447;230;67132;-64
2023/06/03 03:27:03;;;;;;;;;;;;;;;20.30;69.30;96665.77;617494;230;65657;-64
2023/06/03 03:29:33;;;;;;;;;;;;;;;20.30;69.30;96670.31;617206;227;65646;-64
2023/06/03 03:32:07;;;;;;;;;;;;;;;20.32;69.29;96673.48;616675;228;47211;-64
2023/06/03 03:34:38;;;;;;;;;;;;;;;20.30;69.31;96671.10;617345;228;64815;-64
2023/06/03 03:37:07;;;;;;;;;;;;;;;20.30;69.30;96672.98;617370;230;65897;-63
2023/06/03 03:39:36;;;;;;;;;;;;;;;20.31;69.30;96682.56;617177;230;66846;-63
2023/06/03 03:42:04;;;;;;;;;;;;;;;20.30;69.30;96675.64;617377;230;64970;-63
2023/06/03 03:44:32;;;;;;;;;;;;;;;20.28;69.29;96667.91;617443;230;62954;-64
2023/06/03 03:47:03;;;;;;;;;;;;;;;20.30;69.30;96671.10;617499;229;67845;-63
2023/06/03 03:49:34;;;;;;;;;;;;;;;20.30;69.30;96670.31;617523;230;67504;-63
2023/06/03 03:52:04;;;;;;;;;;;;;;;20.30;69.31;96675.64;617526;228;42477;-63
2023/06/03 03:54:33;;;;;;;;;;;;;;;20.30;69.30;96681.77;617583;230;67202;-63
2023/06/03 03:57:02;;;;;;;;;;;;;;;20.30;69.31;96683.65;617502;230;65841;-62
2023/06/03 03:59:30;;;;;;;;;;;;;;;20.30;69.33;96680.98;617451;228;65678;-62
2023/06/03 04:01:58;;;;;;;;;;;;;;;20.29;69.31;96684.70;617536;230;67790;-62
2023/06/03 04:04:43;;;;;;;;;;;;;;;20.29;69.33;96682.03;617497;230;64681;-62
2023/06/03 04:07:14;;;;;;;;;;;;;;;20.28;69.32;96680.45;617565;230;62893;-61
2023/06/03 04:09:43;;;;;;;;;;;;;;;20.28;69.30;96689.25;617536;230;67556;-61
2023/06/03 04:12:15;;;;;;;;;;;;;;;20.29;69.31;96690.04;617488;228;66924;-61
2023/06/03 04:14:44;;;;;;;;;;;;;;;20.29;69.33;96690.04;619369;228;65769;-62
2023/06/03 04:17:14;;;;;;;;;;;;;;;20.28;69.34;96688.45;619586;229;64904;-62
2023/06/03 04:19:42;;;;;;;;;;;;;;;20.29;69.33;96690.04;619656;229;64905;-62
2023/06/03 04:22:16;;;;;;;;;;;;;;;20.28;69.34;96694.59;619702;227;42484;-62
2023/06/03 04:24:43;;;;;;;;;;;;;;;20.28;69.32;96696.46;619478;228;64935;-62
2023/06/03 04:27:14;;;;;;;;;;;;;;;20.28;69.34;96701.80;619351;229;66950;-62
2023/06/03 04:29:42;;;;;;;;;;;;;;;20.28;69.32;96704.47;619623;229;66015;-62
2023/06/03 04:32:09;;;;;;;;;;;;;;;20.28;69.34;96699.92;619660;229;67700;-62
2023/06/03 04:34:39;;;;;;;;;;;;;;;20.28;69.34;96699.13;619661;229;67387;-62
2023/06/03 04:37:06;;;;;;;;;;;;;;;20.28;69.33;96701.80;618562;228;62763;-63
2023/06/03 04:39:34;;;;;;;;;;;;;;;20.27;69.34;96706.34;619651;229;64535;-62
2023/06/03 04:42:07;;;;;;;;;;;;;;;20.29;69.35;96708.72;619639;229;64676;-62
2023/06/03 04:44:31;;;;;;;;;;;;;;;20.28;69.35;96715.14;619585;228;62921;-62
2023/06/03 04:47:00;;;;;;;;;;;;;;;20.28;69.34;96712.47;619651;229;67434;-62
2023/06/03 04:49:32;;;;;;;;;;;;;;;20.28;69.35;96710.59;619657;229;65574;-62
2023/06/03 04:51:57;;;;;;;;;;;;;;;20.28;69.36;96715.14;619595;227;62930;-63
2023/06/03 04:54:24;;;;;;;;;;;;;;;20.27;69.35;96725.02;619637;229;64172;-62
2023/06/03 04:56:52;;;;;;;;;;;;;;;20.29;69.37;96738.07;619584;229;67141;-63
2023/06/03 04:59:20;;;;;;;;;;;;;;;20.28;69.39;96736.48;619465;229;62815;-62
2023/06/03 05:01:50;;;;;;;;;;;;;;;20.28;69.41;96739.16;619651;228;43683;-62
2023/06/03 05:04:19;;;;;;;;;;;;;;;20.27;69.39;96734.88;615682;229;68244;-62
2023/06/03 05:06:55;;;;;;;;;;;;;;;20.27;69.38;96741.03;619527;229;65001;-63
2023/06/03 05:09:18;;;;;;;;;;;;;;;20.28;69.37;96741.83;619391;228;65777;-63
2023/06/03 05:11:47;;;;;;;;;;;;;;;20.27;69.38;96740.20;619580;229;64575;-63
2023/06/03 05:14:15;;;;;;;;;;;;;;;20.26;69.38;96734.08;619654;229;65811;-63
2023/06/03 05:16:44;;;;;;;;;;;;;;;20.27;69.37;96745.55;619697;229;67241;-63
2023/06/03 05:19:12;;;;;;;;;;;;;;;20.27;69.37;96742.88;619611;229;66893;-63
2023/06/03 05:21:41;;;;;;;;;;;;;;;20.27;69.41;96748.21;619581;229;62509;-63
2023/06/03 05:24:10;;;;;;;;;;;;;;;20.26;69.44;96739.41;619599;229;65793;-62
2023/06/03 05:26:37;;;;;;;;;;;;;;;20.26;69.46;96742.08;619565;229;66920;-63
2023/06/03 05:29:05;;;;;;;;;;;;;;;20.26;69.47;96749.30;619673;229;63804;-62
2023/06/03 05:31:33;;;;;;;;;;;;;;;20.27;69.46;96753.55;619691;229;64889;-62
2023/06/03 05:34:00;;;;;;;;;;;;;;;20.26;69.48;96757.30;619621;229;67328;-62
2023/06/03 05:36:28;;;;;;;;;;;;;;;20.26;69.53;96760.77;619625;229;63720;-62
2023/06/03 05:38:59;;;;;;;;;;;;;;;20.27;69.56;96761.55;619688;229;45176;-62
2023/06/03 05:41:26;;;;;;;;;;;;;;;20.27;69.54;96758.89;619674;229;66788;-63
2023/06/03 05:43:54;;;;;;;;;;;;;;;20.26;69.52;96765.30;619695;229;65769;-63
2023/06/03 05:46:22;;;;;;;;;;;;;;;20.26;69.53;96770.64;619664;229;64688;-63
2023/06/03 05:48:50;;;;;;;;;;;;;;;20.25;69.54;96775.19;619606;229;67542;-63
2023/06/03 05:51:18;;;;;;;;;;;;;;;20.26;69.54;96775.98;619635;229;65112;-63
2023/06/03 05:53:46;;;;;;;;;;;;;;;20.26;69.53;96781.31;619654;229;64962;-63
2023/06/03 05:56:15;;;;;;;;;;;;;;;20.26;69.52;96781.31;619652;228;49142;-62
2023/06/03 05:58:43;;;;;;;;;;;;;;;20.26;69.53;96787.45;619638;229;65727;-62
2023/06/03 06:01:11;;;;;;;;;;;;;;;20.26;69.56;96786.66;619579;229;65091;-62
2023/06/03 06:03:38;;;;;;;;;;;;;;;20.25;69.55;96790.41;619648;229;67284;-62
2023/06/03 06:06:06;;;;;;;;;;;;;;;20.25;69.55;96795.74;619659;229;65269;-62
2023/06/03 06:08:36;;;;;;;;;;;;;;;20.25;69.56;96791.20;619624;227;66756;-62
2023/06/03 06:11:03;;;;;;;;;;;;;;;20.23;69.31;96789.87;619624;229;66981;-62
2023/06/03 06:13:34;;;;;;;;;;;;;;;20.23;69.61;96792.53;619548;229;65675;-62
2023/06/03 06:16:03;;;;;;;;;;;;;;;20.24;70.05;96794.13;619629;229;67301;-62
2023/06/03 06:18:31;;;;;;;;;;;;;;;20.25;70.02;96801.88;619637;229;64838;-62
2023/06/03 06:20:59;;;;;;;;;;;;;;;20.25;69.92;96799.20;619635;229;65817;-62
2023/06/03 06:23:27;;;;;;;;;;;;;;;20.26;69.83;96803.45;619703;229;65932;-62
2023/06/03 06:25:55;;;;;;;;;;;;;;;20.26;69.90;96808.00;619629;229;65657;-62
2023/06/03 06:28:26;;;;;;;;;;;;;;;20.27;69.83;96815.75;619626;229;65115;-62
2023/06/03 06:30:55;;;;;;;;;;;;;;;20.27;69.82;96813.08;619651;229;67120;-62
2023/06/03 06:33:22;;;;;;;;;;;;;;;20.28;69.85;96811.20;619651;229;64498;-62
2023/06/03 06:35:50;;;;;;;;;;;;;;;20.28;69.83;96811.20;619697;229;65637;-62
2023/06/03 06:38:18;;;;;;;;;;;;;;;20.27;69.79;96817.59;619624;229;64900;-62
2023/06/03 06:40:45;;;;;;;;;;;;;;;20.28;69.74;96819.21;619641;229;64824;-62
2023/06/03 06:43:18;;;;;;;;;;;;;;;20.29;69.71;96820.80;619644;229;63702;-62
2023/06/03 06:45:48;;;;;;;;;;;;;;;20.29;69.67;96823.47;619648;228;44365;-62
2023/06/03 06:48:15;;;;;;;;;;;;;;;20.29;69.66;96820.80;619689;229;64683;-62
2023/06/03 06:51:00;;;;;;;;;;;;;;;20.29;69.64;96823.47;619721;229;40489;-62
2023/06/03 06:53:33;;;;;;;;;;;;;;;20.28;69.65;96828.02;619394;228;48247;-62
2023/06/03 06:56:07;;;;;;;;;;;;;;;20.29;69.67;96818.13;619700;228;45490;-62
2023/06/03 06:58:38;;;;;;;;;;;;;;;20.30;69.61;96819.75;617227;229;45561;-61
2023/06/03 07:01:06;;;;;;;;;;;;;;;20.28;69.61;96822.67;619622;229;64515;-61
2023/06/03 07:03:36;;;;;;;;;;;;;;;20.30;69.62;96830.42;619671;229;67310;-61
2023/06/03 07:06:04;;;;;;;;;;;;;;;20.31;69.62;96818.66;619644;229;65125;-62
2023/06/03 07:08:35;;;;;;;;;;;;;;;20.29;69.63;96823.47;619646;229;65767;-62
2023/06/03 07:11:04;;;;;;;;;;;;;;;20.30;69.58;96828.55;619611;229;67665;-62
2023/06/03 07:13:39;;;;;;;;;;;;;;;20.30;69.58;96828.55;618172;228;42083;-63
2023/06/03 07:16:07;;;;;;;;;;;;;;;20.31;69.58;96837.34;617476;230;67209;-63
2023/06/03 07:18:35;;;;;;;;;;;;;;;20.31;69.60;96835.47;617571;230;66894;-61
2023/06/03 07:21:03;;;;;;;;;;;;;;;20.31;69.60;96832.01;617562;230;64947;-61
2023/06/03 07:23:30;;;;;;;;;;;;;;;20.31;69.60;96832.01;617510;230;65614;-61
2023/06/03 07:25:58;;;;;;;;;;;;;;;20.32;69.59;96838.94;617497;230;67055;-61
2023/06/03 07:28:31;;;;;;;;;;;;;;;20.31;69.65;96838.14;617486;230;65666;-63
2023/06/03 07:31:03;;;;;;;;;;;;;;;20.32;69.60;96836.27;617547;229;47023;-62
2023/06/03 07:33:32;;;;;;;;;;;;;;;20.32;69.60;96838.94;617522;230;67463;-62
2023/06/03 07:36:02;;;;;;;;;;;;;;;20.32;69.59;96842.40;617508;227;64998;-62
2023/06/03 07:38:34;;;;;;;;;;;;;;;20.33;69.63;96843.22;617482;230;67208;-62
2023/06/03 07:41:02;;;;;;;;;;;;;;;20.32;69.64;96849.61;617272;228;64861;-63
2023/06/03 07:43:29;;;;;;;;;;;;;;;20.33;69.62;96843.22;617448;230;62522;-63
2023/06/03 07:45:57;;;;;;;;;;;;;;;20.32;69.65;96850.41;617582;230;64988;-63
2023/06/03 07:48:24;;;;;;;;;;;;;;;20.33;69.65;96843.22;617499;230;66974;-62
2023/06/03 07:50:52;;;;;;;;;;;;;;;20.33;69.65;96846.69;617477;230;65081;-62
2023/06/03 07:53:24;;;;;;;;;;;;;;;20.33;69.66;96856.56;615142;230;67172;-63
2023/06/03 07:55:52;;;;;;;;;;;;;;;20.33;69.62;96852.02;617339;228;67006;-63
2023/06/03 07:58:19;;;;;;;;;;;;;;;20.33;69.62;96857.36;617421;230;65108;-63
2023/06/03 08:00:48;;;;;;;;;;;;;;;20.33;69.62;96857.36;617403;230;67201;-63
2023/06/03 08:03:18;;;;;;;;;;;;;;;20.33;69.64;96853.90;617315;230;64544;-63
2023/06/03 08:05:49;;;;;;;;;;;;;;;20.34;69.65;96858.16;617383;230;64165;-63
2023/06/03 08:08:18;;;;;;;;;;;;;;;20.33;69.66;96852.02;617388;230;67224;-62
2023/06/03 08:10:47;;;;;;;;;;;;;;;20.33;69.71;96852.02;617294;228;66687;-62
2023/06/03 08:13:16;;;;;;;;;;;;;;;20.33;69.71;96845.89;617366;229;62914;-62
2023/06/03 08:15:44;;;;;;;;;;;;;;;20.34;69.73;96847.48;617417;230;67020;-62
2023/06/03 08:18:13;;;;;;;;;;;;;;;20.34;69.74;96852.81;617343;230;67291;-62
2023/06/03 08:20:41;;;;;;;;;;;;;;;20.33;69.72;96854.69;617374;230;63069;-62
2023/06/03 08:23:09;;;;;;;;;;;;;;;20.34;69.72;96842.14;617399;230;64927;-62
2023/06/03 08:25:37;;;;;;;;;;;;;;;20.34;69.78;96850.15;617417;230;66997;-62
2023/06/03 08:28:05;;;;;;;;;;;;;;;20.33;69.79;96843.22;617409;230;65016;-62
2023/06/03 08:30:33;;;;;;;;;;;;;;;20.33;69.79;96844.02;617388;230;67289;-63
2023/06/03 08:33:00;;;;;;;;;;;;;;;20.34;69.76;96847.48;617537;230;64626;-63
2023/06/03 08:35:28;;;;;;;;;;;;;;;20.35;69.74;96854.41;617502;230;63002;-63
2023/06/03 08:37:56;;;;;;;;;;;;;;;20.34;69.76;96855.48;617409;230;66700;-63
2023/06/03 08:40:25;;;;;;;;;;;;;;;20.35;69.77;96854.41;617520;230;66746;-63
2023/06/03 08:42:54;;;;;;;;;;;;;;;20.34;69.79;96858.16;617500;230;65123;-63
2023/06/03 08:45:23;;;;;;;;;;;;;;;20.34;69.77;96856.28;617423;230;64790;-63
2023/06/03 08:47:58;;;;;;;;;;;;;;;20.35;69.76;96865.08;617523;230;66796;-63
2023/06/03 08:50:27;;;;;;;;;;;;;;;20.35;69.79;96862.41;617525;230;62915;-62
2023/06/03 08:52:55;;;;;;;;;;;;;;;20.35;69.78;96865.08;617566;230;64306;-62
2023/06/03 08:55:22;;;;;;;;;;;;;;;20.35;69.79;96870.41;617532;230;64589;-63
2023/06/03 08:57:51;;;;;;;;;;;;;;;20.35;69.77;96881.92;617508;230;63039;-63
2023/06/03 09:00:21;;;;;;;;;;;;;;;20.35;69.80;96870.41;617495;230;64928;-62
2023/06/03 09:02:50;;;;;;;;;;;;;;;20.35;69.79;96876.58;617521;230;67050;-62
2023/06/03 09:05:19;;;;;;;;;;;;;;;20.35;69.80;96881.09;617560;230;65109;-63
2023/06/03 09:07:48;;;;;;;;;;;;;;;20.34;69.79;96880.30;617530;229;67067;-62
2023/06/03 09:10:16;;;;;;;;;;;;;;;20.36;69.87;96888.05;617515;230;64822;-62
2023/06/03 09:12:47;;;;;;;;;;;;;;;20.35;69.82;96891.77;617461;229;65092;-62
2023/06/03 09:15:15;;;;;;;;;;;;;;;20.35;69.80;96891.77;617543;230;64938;-62
2023/06/03 09:17:44;;;;;;;;;;;;;;;20.35;69.86;96899.77;617594;230;64471;-62
2023/06/03 09:20:13;;;;;;;;;;;;;;;20.35;69.91;96891.77;617531;230;63055;-62
2023/06/03 09:22:42;;;;;;;;;;;;;;;20.36;69.91;96888.05;617534;230;67300;-62
2023/06/03 09:25:09;;;;;;;;;;;;;;;20.35;69.92;96883.76;617406;228;64609;-62
2023/06/03 09:27:37;;;;;;;;;;;;;;;20.35;69.89;96873.91;617502;230;63064;-62
2023/06/03 09:30:05;;;;;;;;;;;;;;;20.35;69.91;96886.43;617556;230;64995;-62
2023/06/03 09:32:34;;;;;;;;;;;;;;;20.35;69.87;96883.76;617567;230;67447;-62
2023/06/03 09:35:04;;;;;;;;;;;;;;;20.36;69.89;96888.84;617486;230;63023;-62
2023/06/03 09:37:31;;;;;;;;;;;;;;;20.35;69.88;96884.59;617489;228;68032;-62
2023/06/03 09:39:59;;;;;;;;;;;;;;;20.36;69.89;96888.05;617486;230;67013;-62
2023/06/03 09:42:42;;;;;;;;;;;;;;;20.35;69.89;96897.93;617536;230;65036;-62
2023/06/03 09:45:23;;;;;;;;;;;;;;;20.35;69.89;96891.77;617574;230;67256;-62
2023/06/03 09:47:53;;;;;;;;;;;;;;;20.36;69.89;96899.52;617540;228;48142;-62
2023/06/03 09:50:21;;;;;;;;;;;;;;;20.37;69.89;96900.31;617521;230;65033;-62
2023/06/03 09:52:49;;;;;;;;;;;;;;;20.36;69.91;96898.73;617533;230;67031;-62
2023/06/03 09:55:17;;;;;;;;;;;;;;;20.34;69.93;96898.98;617520;230;67031;-62
2023/06/03 09:57:48;;;;;;;;;;;;;;;20.35;69.91;96903.27;617360;228;65053;-62
2023/06/03 10:00:15;;;;;;;;;;;;;;;20.36;69.92;96901.39;617118;230;67563;-62
2023/06/03 10:02:44;;;;;;;;;;;;;;;20.35;69.97;96900.60;617528;230;66943;-62
2023/06/03 10:05:22;;;;;;;;;;;;;;;20.35;69.94;96891.77;617519;230;63045;-62
2023/06/03 10:07:50;;;;;;;;;;;;;;;20.35;69.96;96903.27;616471;230;67220;-61
2023/06/03 10:10:18;;;;;;;;;;;;;;;20.36;69.99;96909.41;617521;230;66982;-61
2023/06/03 10:12:47;;;;;;;;;;;;;;;20.36;69.99;96909.41;618073;228;64914;-61
2023/06/03 10:15:17;;;;;;;;;;;;;;;20.36;69.98;96915.53;619714;229;64942;-61
2023/06/03 10:17:45;;;;;;;;;;;;;;;20.36;70.01;96914.73;619532;227;65851;-61
2023/06/03 10:20:14;;;;;;;;;;;;;;;20.36;70.00;96917.41;619590;227;62930;-61
2023/06/03 10:22:43;;;;;;;;;;;;;;;20.36;70.02;96910.20;619167;228;67262;-62
2023/06/03 10:25:11;;;;;;;;;;;;;;;20.36;70.03;96915.53;619623;229;64894;-62
2023/06/03 10:27:38;;;;;;;;;;;;;;;20.36;70.06;96912.07;619715;229;62904;-61
2023/06/03 10:30:07;;;;;;;;;;;;;;;20.37;70.07;96916.33;619633;229;64986;-61
2023/06/03 10:32:35;;;;;;;;;;;;;;;20.36;70.05;96920.08;619637;229;67049;-61
2023/06/03 10:35:02;;;;;;;;;;;;;;;20.36;70.02;96920.88;619665;229;65180;-62
2023/06/03 10:37:31;;;;;;;;;;;;;;;20.36;70.02;96923.54;619653;229;67211;-62
2023/06/03 10:40:00;;;;;;;;;;;;;;;20.36;70.02;96920.88;619700;229;64632;-62
2023/06/03 10:42:29;;;;;;;;;;;;;;;20.36;70.03;96925.41;619634;229;65010;-63
2023/06/03 10:44:56;;;;;;;;;;;;;;;20.37;70.00;96935.02;619650;229;65059;-63
2023/06/03 10:47:26;;;;;;;;;;;;;;;20.37;70.04;96929.67;619641;229;65363;-63
2023/06/03 10:49:58;;;;;;;;;;;;;;;20.37;70.03;96937.68;619505;228;65139;-63
2023/06/03 10:52:36;;;;;;;;;;;;;;;20.37;70.05;96935.02;619654;229;64964;-63
2023/06/03 10:55:11;;;;;;;;;;;;;;;20.37;70.02;96935.02;619662;229;67068;-64
2023/06/03 10:57:40;;;;;;;;;;;;;;;20.36;70.05;96936.88;619655;229;64908;-62
2023/06/03 11:00:09;;;;;;;;;;;;;;;20.37;70.04;96938.47;619590;228;67034;-61
2023/06/03 11:02:42;;;;;;;;;;;;;;;20.37;70.06;96933.14;619651;229;65051;-61
2023/06/03 11:05:25;;;;;;;;;;;;;;;20.37;70.11;96924.34;618407;229;65064;-61
2023/06/03 11:07:53;;;;;;;;;;;;;;;20.36;70.12;96925.41;619637;229;66732;-62
2023/06/03 11:10:39;;;;;;;;;;;;;;;20.37;70.10;96927.00;619678;229;67071;-62
2023/06/03 11:13:07;;;;;;;;;;;;;;;20.37;70.11;96932.34;619635;229;62860;-62
2023/06/03 11:15:53;;;;;;;;;;;;;;;20.36;70.12;96928.08;619637;229;67496;-62
2023/06/03 11:18:20;;;;;;;;;;;;;;;20.36;70.14;96931.55;619632;229;67131;-62
2023/06/03 11:20:48;;;;;;;;;;;;;;;20.36;70.16;96936.09;619540;229;65053;-62
2023/06/03 11:23:33;;;;;;;;;;;;;;;20.37;70.19;96935.80;619642;229;64867;-62
2023/06/03 11:26:02;;;;;;;;;;;;;;;20.36;70.18;96936.88;619591;229;67135;-62
2023/06/03 11:28:30;;;;;;;;;;;;;;;20.36;70.17;96930.75;618978;229;65114;-62
2023/06/03 11:30:58;;;;;;;;;;;;;;;20.37;70.17;96932.34;619638;229;64746;-62
2023/06/03 11:33:25;;;;;;;;;;;;;;;20.37;70.19;96935.02;619611;229;64911;-62
2023/06/03 11:35:53;;;;;;;;;;;;;;;20.37;70.23;96927.00;619606;229;62895;-62
2023/06/03 11:38:22;;;;;;;;;;;;;;;20.37;70.21;96924.34;619614;229;67079;-62
2023/06/03 11:40:49;;;;;;;;;;;;;;;20.37;70.20;96929.67;619015;229;64785;-62
2023/06/03 11:43:18;;;;;;;;;;;;;;;20.37;70.20;96919.79;619700;229;62858;-62
2023/06/03 11:45:45;;;;;;;;;;;;;;;20.38;70.21;96920.61;619625;229;65103;-62
2023/06/03 11:48:15;;;;;;;;;;;;;;;20.38;70.15;96923.28;619631;229;67011;-62
2023/06/03 11:50:48;;;;;;;;;;;;;;;20.38;70.19;96915.28;619632;229;63746;-62
2023/06/03 11:53:35;;;;;;;;;;;;;;;20.38;70.17;96917.95;619568;229;65011;-61
2023/06/03 11:56:04;;;;;;;;;;;;;;;20.38;70.20;96912.61;619612;229;64762;-63
2023/06/03 11:58:31;;;;;;;;;;;;;;;20.38;70.15;96904.59;619643;229;62975;-63
2023/06/03 12:01:06;;;;;;;;;;;;;;;20.36;70.18;96907.53;619626;229;67345;-63
2023/06/03 12:03:34;;;;;;;;;;;;;;;20.38;70.17;96899.27;619585;229;67334;-61
2023/06/03 12:06:03;;;;;;;;;;;;;;;20.37;70.20;96895.77;619594;229;62953;-61
2023/06/03 12:08:46;;;;;;;;;;;;;;;20.38;70.21;96896.59;619618;229;67238;-61
2023/06/03 12:11:29;;;;;;;;;;;;;;;20.38;70.20;96891.25;619557;229;64512;-63
2023/06/03 12:13:56;;;;;;;;;;;;;;;20.37;70.21;96887.77;617967;229;65273;-61
2023/06/03 12:16:35;;;;;;;;;;;;;;;20.37;70.21;96884.30;617497;230;67220;-61
2023/06/03 12:19:07;;;;;;;;;;;;;;;20.37;70.25;96885.09;617306;228;67176;-63
2023/06/03 12:21:36;;;;;;;;;;;;;;;20.38;70.24;96870.70;617513;230;63189;-62
2023/06/03 12:24:10;;;;;;;;;;;;;;;20.38;70.24;96869.91;617496;230;64767;-62
2023/06/03 12:26:39;;;;;;;;;;;;;;;20.38;70.27;96859.23;617468;230;64925;-62
2023/06/03 12:29:08;;;;;;;;;;;;;;;20.38;70.23;96864.56;617518;230;65072;-62
2023/06/03 12:31:36;;;;;;;;;;;;;;;20.37;70.23;96849.60;617491;230;67386;-62
2023/06/03 12:34:04;;;;;;;;;;;;;;;20.37;70.23;96853.06;617502;230;67136;-62
2023/06/03 12:36:48;;;;;;;;;;;;;;;20.38;70.22;96848.55;617479;230;63039;-62
2023/06/03 12:39:17;;;;;;;;;;;;;;;20.39;70.21;96847.47;617485;228;67270;-62
2023/06/03 12:41:50;;;;;;;;;;;;;;;20.37;70.22;96850.40;617494;230;67001;-62
2023/06/03 12:44:17;;;;;;;;;;;;;;;20.38;70.20;96848.55;617612;230;65092;-62
2023/06/03 12:46:45;;;;;;;;;;;;;;;20.38;70.22;96849.34;617577;230;66809;-62
2023/06/03 12:49:16;;;;;;;;;;;;;;;20.37;70.21;96847.73;617544;230;66956;-62
2023/06/03 12:51:43;;;;;;;;;;;;;;;20.38;70.20;96846.67;617495;230;65189;-62
2023/06/03 12:54:11;;;;;;;;;;;;;;;20.38;70.22;96844.01;617529;230;64715;-62
2023/06/03 12:56:40;;;;;;;;;;;;;;;20.38;70.22;96841.34;617605;230;66820;-62
2023/06/03 12:59:07;;;;;;;;;;;;;;;20.38;70.19;96837.87;617552;230;63079;-62